Time;durP1;ratioP1;P1;durP2;ratioP2;P2;SDS_P1;SDS_P2;PMS_P1;PMS_P2;Temp;Humidity;BMP_temperature;BMP_pressure;BME280_temperature;BME280_humidity;BME280_pressure;Samples;Min_cycle;Max_cycle;Signal;HPM_P1;HPM_P2
2022/09/07 00:01:36;;;;;;;3.90;2.43;;;8.40;99.90;7.60;101069;;;;572611;246;24110;-79
2022/09/07 00:04:04;;;;;;;2.97;2.63;;;8.40;99.90;7.60;101066;;;;572638;247;24103;-78
2022/09/07 00:06:33;;;;;;;2.57;2.37;;;8.40;99.90;7.60;101053;;;;572427;247;24078;-76
2022/09/07 00:09:03;;;;;;;3.37;2.50;;;8.30;99.90;7.60;101051;;;;572559;247;24115;-80
2022/09/07 00:11:30;;;;;;;3.30;3.00;;;8.30;99.90;7.50;101047;;;;573234;247;24083;-84
2022/09/07 00:13:58;;;;;;;3.83;3.57;;;8.30;99.90;7.50;101048;;;;572823;247;24107;-84
2022/09/07 00:16:23;;;;;;;3.30;3.10;;;8.20;99.90;7.40;101047;;;;572379;247;25278;-80
2022/09/07 00:18:51;;;;;;;2.90;2.60;;;8.20;99.90;7.40;101049;;;;571721;247;24108;-81
2022/09/07 00:21:19;;;;;;;3.23;2.93;;;8.10;99.90;7.30;101046;;;;561580;251;24132;-82
2022/09/07 00:23:47;;;;;;;3.00;2.57;;;8.10;99.90;7.30;101042;;;;562362;251;24108;-81
2022/09/07 00:26:15;;;;;;;3.27;3.07;;;8.00;99.90;7.30;101045;;;;570855;251;25196;-80
2022/09/07 00:28:43;;;;;;;3.17;2.97;;;8.00;99.90;7.20;101047;;;;582427;247;24122;-83
2022/09/07 00:31:14;;;;;;;2.90;2.70;;;8.00;99.90;7.20;101041;;;;572473;247;24105;-81
2022/09/07 00:33:42;;;;;;;3.13;2.87;;;8.00;99.90;7.20;101036;;;;572542;247;24109;-79
2022/09/07 00:36:10;;;;;;;2.77;2.57;;;8.00;99.90;7.30;101042;;;;573277;247;24096;-76
2022/09/07 00:38:38;;;;;;;3.23;2.70;;;8.00;99.90;7.20;101036;;;;573089;247;24095;-77
2022/09/07 00:41:09;;;;;;;2.53;2.43;;;8.00;99.90;7.20;101034;;;;574040;246;24093;-80
2022/09/07 00:43:39;;;;;;;6.37;2.77;;;8.00;99.90;7.20;101030;;;;573184;246;25233;-79
2022/09/07 00:46:17;;;;;;;3.10;2.73;;;8.00;99.90;7.20;101024;;;;573200;246;24099;-79
2022/09/07 00:49:00;;;;;;;3.43;3.13;;;8.00;99.90;7.10;101031;;;;573062;246;24096;-81
2022/09/07 00:51:33;;;;;;;3.93;3.63;;;7.90;99.90;7.10;101027;;;;572660;246;24120;-77
2022/09/07 00:54:01;;;;;;;4.50;2.93;;;7.90;99.90;7.10;101032;;;;572646;246;24106;-76
2022/09/07 00:56:29;;;;;;;3.77;3.40;;;7.90;99.90;7.00;101023;;;;572678;246;24090;-79
2022/09/07 00:58:57;;;;;;;3.50;3.20;;;7.80;99.90;7.00;101031;;;;572270;246;24089;-81
2022/09/07 01:01:28;;;;;;;3.47;3.17;;;7.80;99.90;6.90;101029;;;;572215;246;24155;-77
2022/09/07 01:03:56;;;;;;;3.50;3.30;;;7.70;99.90;6.80;101037;;;;572168;246;24112;-76
2022/09/07 01:06:26;;;;;;;3.50;3.20;;;7.70;99.90;6.80;101026;;;;572100;246;24101;-76
2022/09/07 01:08:54;;;;;;;6.53;3.57;;;7.60;99.90;6.70;101031;;;;570633;246;24138;-82
2022/09/07 01:11:22;;;;;;;3.10;2.90;;;7.50;99.90;6.70;101031;;;;561958;251;24168;-81
2022/09/07 01:13:53;;;;;;;3.80;3.50;;;7.50;99.90;6.70;101027;;;;581739;246;24145;-77
2022/09/07 01:16:54;;;;;;;3.53;3.27;;;7.50;99.90;6.70;101027;;;;571987;247;24091;-76
2022/09/07 01:19:33;;;;;;;5.50;4.07;;;7.50;99.90;6.70;101026;;;;572215;247;24118;-76
2022/09/07 01:22:10;;;;;;;4.87;3.40;;;7.40;99.90;6.70;101027;;;;572069;247;24113;-78
2022/09/07 01:25:11;;;;;;;4.00;3.63;;;7.40;99.90;6.70;101028;;;;571468;247;24086;-77
2022/09/07 01:28:09;;;;;;;3.47;3.17;;;7.40;99.90;6.60;101029;;;;573426;247;24097;-82
2022/09/07 01:30:37;;;;;;;4.07;3.77;;;7.40;99.90;6.60;101023;;;;573023;247;24103;-82
2022/09/07 01:33:20;;;;;;;4.80;4.30;;;7.40;99.90;6.60;101025;;;;573154;247;24166;-83
2022/09/07 01:35:59;;;;;;;4.30;3.30;;;7.30;99.90;6.60;101023;;;;571874;247;24103;-84
2022/09/07 01:38:54;;;;;;;3.90;3.60;;;7.40;99.90;6.60;101020;;;;561893;251;24154;-81
2022/09/07 01:41:43;;;;;;;4.30;3.90;;;7.30;99.90;6.50;101024;;;;582114;247;24090;-84
2022/09/07 01:44:22;;;;;;;4.27;3.87;;;7.30;99.90;6.50;101011;;;;572723;247;24098;-83
2022/09/07 01:47:20;;;;;;;3.70;3.50;;;7.30;99.90;6.50;101007;;;;572758;247;24102;-82
2022/09/07 01:49:54;;;;;;;3.90;3.47;;;7.30;99.90;6.50;100999;;;;566710;250;24232;-81
2022/09/07 01:52:39;;;;;;;4.30;3.90;;;7.30;99.90;6.40;100993;;;;567187;249;24213;-81
2022/09/07 01:55:09;;;;;;;4.83;4.00;;;7.20;99.90;6.40;100999;;;;569746;246;24090;-79
2022/09/07 01:57:37;;;;;;;5.13;3.77;;;7.20;99.90;6.40;100994;;;;565484;246;24161;-78
2022/09/07 02:00:09;;;;;;;4.50;3.77;;;7.10;99.90;6.30;100992;;;;562873;251;24185;-79
2022/09/07 02:02:52;;;;;;;7.40;3.90;;;7.10;99.90;6.30;100998;;;;563171;251;24131;-79
2022/09/07 02:05:23;;;;;;;4.80;4.27;;;7.10;99.90;6.30;100998;;;;561951;251;24190;-81
2022/09/07 02:07:54;;;;;;;5.33;4.20;;;7.10;99.90;6.20;100989;;;;571536;251;24119;-81
2022/09/07 02:10:22;;;;;;;6.70;4.83;;;7.00;99.90;6.20;100991;;;;560928;251;24205;-78
2022/09/07 02:12:53;;;;;;;6.53;4.57;;;7.00;99.90;6.20;100995;;;;571289;251;24133;-79
2022/09/07 02:15:23;;;;;;;8.63;4.40;;;7.00;99.90;6.20;101002;;;;562965;251;25156;-80
2022/09/07 02:17:51;;;;;;;4.40;4.10;;;7.00;99.90;6.20;100990;;;;560176;251;24144;-75
2022/09/07 02:20:22;;;;;;;5.63;4.27;;;7.00;99.90;6.20;101001;;;;561838;251;24169;-77
2022/09/07 02:22:50;;;;;;;5.23;4.47;;;7.00;99.90;6.20;100994;;;;560157;251;24126;-83
2022/09/07 02:25:18;;;;;;;6.43;4.50;;;7.00;99.90;6.20;100987;;;;561701;251;24130;-76
2022/09/07 02:27:46;;;;;;;5.93;4.53;;;7.00;99.90;6.20;100989;;;;570026;251;24219;-76
2022/09/07 02:30:14;;;;;;;6.70;3.90;;;7.00;99.90;6.20;100988;;;;561626;251;24137;-77
2022/09/07 02:32:44;;;;;;;5.70;4.63;;;7.00;99.90;6.20;100980;;;;561824;251;24184;-76
2022/09/07 02:35:13;;;;;;;4.20;3.90;;;7.00;99.90;6.20;100984;;;;561864;251;24182;-77
2022/09/07 02:37:41;;;;;;;5.43;4.20;;;7.00;99.90;6.20;100972;;;;562336;251;24180;-77
2022/09/07 02:40:09;;;;;;;4.77;4.27;;;7.00;99.90;6.10;100973;;;;561850;251;24138;-77
2022/09/07 02:42:37;;;;;;;4.30;3.70;;;6.90;99.90;6.10;100977;;;;562379;251;24136;-78
2022/09/07 02:45:05;;;;;;;6.27;4.60;;;7.00;99.90;6.10;100971;;;;562474;251;24156;-75
2022/09/07 02:48:09;;;;;;;4.80;4.40;;;7.00;99.90;6.10;100979;;;;570689;251;25158;-76
2022/09/07 02:50:58;;;;;;;7.00;4.53;;;6.90;99.90;6.10;100976;;;;561549;251;24138;-77
2022/09/07 02:53:47;;;;;;;5.03;4.33;;;6.90;99.90;6.00;100961;;;;570349;247;24114;-78
2022/09/07 02:56:26;;;;;;;6.13;4.57;;;6.80;99.90;6.00;100972;;;;581060;247;24225;-79
2022/09/07 02:59:38;;;;;;;5.10;4.60;;;6.80;99.90;6.00;100981;;;;572180;247;24098;-76
2022/09/07 03:02:27;;;;;;;6.73;4.73;;;6.80;99.90;6.00;100967;;;;572522;247;24087;-78
2022/09/07 03:05:09;;;;;;;8.93;4.73;;;6.80;99.90;5.90;100957;;;;573282;246;24122;-77
2022/09/07 03:07:58;;;;;;;5.20;4.63;;;6.80;99.90;5.90;100963;;;;573040;246;24110;-76
2022/09/07 03:10:27;;;;;;;4.70;4.30;;;6.70;99.90;5.90;100961;;;;572668;246;24105;-78
2022/09/07 03:12:55;;;;;;;6.73;5.10;;;6.70;99.90;5.90;100956;;;;572560;246;24085;-77
2022/09/07 03:15:23;;;;;;;8.27;4.90;;;6.70;99.90;5.90;100957;;;;572391;246;24108;-78
2022/09/07 03:17:53;;;;;;;11.13;5.80;;;6.70;99.90;5.90;100950;;;;572519;246;24098;-76
2022/09/07 03:20:21;;;;;;;7.73;4.97;;;6.70;99.90;5.90;100956;;;;572190;246;24129;-76
2022/09/07 03:22:46;;;;;;;6.37;4.87;;;6.70;99.90;5.90;100952;;;;572219;246;24130;-76
2022/09/07 03:25:14;;;;;;;6.03;5.03;;;6.70;99.90;5.90;100955;;;;572569;246;24105;-75
2022/09/07 03:27:42;;;;;;;5.07;4.67;;;6.70;99.90;5.90;100955;;;;572611;246;24112;-75
2022/09/07 03:30:14;;;;;;;8.10;4.80;;;6.70;99.90;5.90;100946;;;;572691;246;24085;-75
2022/09/07 03:32:38;;;;;;;6.80;4.87;;;6.70;99.90;5.90;100949;;;;572565;246;24103;-74
2022/09/07 03:35:06;;;;;;;5.20;4.63;;;6.70;99.90;5.90;100944;;;;572280;246;24102;-75
2022/09/07 03:37:36;;;;;;;4.70;4.30;;;6.70;99.90;5.90;100948;;;;572174;246;24087;-75
2022/09/07 03:40:04;;;;;;;8.27;4.80;;;6.70;99.90;5.80;100945;;;;581179;247;24106;-76
2022/09/07 03:42:32;;;;;;;8.47;6.03;;;6.70;99.90;5.80;100950;;;;571850;247;24083;-76
2022/09/07 03:45:00;;;;;;;5.37;4.73;;;6.70;99.90;5.80;100963;;;;571964;247;24117;-75
2022/09/07 03:47:28;;;;;;;5.33;4.83;;;6.60;99.90;5.80;100961;;;;572117;247;24114;-76
2022/09/07 03:49:56;;;;;;;5.87;5.07;;;6.60;99.90;5.80;100958;;;;572098;247;24087;-75
2022/09/07 03:52:24;;;;;;;7.00;5.87;;;6.60;99.90;5.80;100957;;;;571991;247;24189;-75
2022/09/07 03:54:52;;;;;;;7.40;4.90;;;6.60;99.90;5.70;100965;;;;572373;247;24141;-76
2022/09/07 03:57:24;;;;;;;7.47;4.83;;;6.50;99.90;5.70;100974;;;;572056;247;24138;-75
2022/09/07 03:59:51;;;;;;;9.30;5.50;;;6.50;99.90;5.60;100978;;;;571494;247;24117;-75
2022/09/07 04:02:15;;;;;;;6.20;5.60;;;6.50;99.90;5.60;100974;;;;572618;247;24091;-76
2022/09/07 04:04:44;;;;;;;7.90;5.87;;;6.50;99.90;5.60;100977;;;;572518;247;24099;-76
2022/09/07 04:07:11;;;;;;;9.20;5.90;;;6.40;99.90;5.50;100984;;;;572546;247;24138;-76
2022/09/07 04:09:41;;;;;;;12.27;5.80;;;6.40;99.90;5.60;100988;;;;572105;247;24142;-75
2022/09/07 04:12:09;;;;;;;10.30;5.70;;;6.40;99.90;5.50;100985;;;;572242;247;24083;-75
2022/09/07 04:14:37;;;;;;;16.17;6.57;;;6.30;99.90;5.50;100979;;;;572473;246;24061;-76
2022/09/07 04:17:05;;;;;;;17.03;6.17;;;6.30;99.90;5.50;100983;;;;573188;246;24105;-76
2022/09/07 04:19:33;;;;;;;12.70;6.37;;;6.30;99.90;5.50;100980;;;;572822;246;24081;-76
2022/09/07 04:22:01;;;;;;;17.43;7.43;;;6.30;99.90;5.60;100977;;;;572521;246;24122;-75
2022/09/07 04:24:30;;;;;;;19.50;7.03;;;6.40;99.90;5.60;100979;;;;572586;246;24133;-75
2022/09/07 04:26:58;;;;;;;17.67;6.83;;;6.40;99.90;5.60;100980;;;;572379;246;24084;-76
2022/09/07 04:29:26;;;;;;;17.03;6.43;;;6.40;99.90;5.70;100974;;;;572442;246;24135;-76
2022/09/07 04:31:53;;;;;;;25.70;7.33;;;6.50;99.90;5.70;100980;;;;572239;246;24117;-76
2022/09/07 04:34:21;;;;;;;15.00;6.90;;;6.50;99.90;5.80;100969;;;;571900;246;24119;-77
2022/09/07 04:36:49;;;;;;;16.47;6.27;;;6.60;99.90;5.90;100973;;;;572111;246;24112;-77
2022/09/07 04:39:17;;;;;;;16.53;6.43;;;6.60;99.90;5.90;100968;;;;571893;246;25191;-78
2022/09/07 04:41:45;;;;;;;19.73;6.80;;;6.70;99.90;6.00;100964;;;;571990;246;24101;-77
2022/09/07 04:44:13;;;;;;;21.53;6.37;;;6.80;99.90;6.10;100965;;;;571961;246;24097;-78
2022/09/07 04:46:41;;;;;;;25.30;6.13;;;6.90;99.90;6.20;100963;;;;572100;246;24178;-75
2022/09/07 04:49:09;;;;;;;10.37;5.37;;;6.90;99.90;6.40;100966;;;;572029;246;24075;-76
2022/09/07 04:51:37;;;;;;;55.63;8.87;;;7.10;99.90;6.50;100964;;;;571607;247;24118;-76
2022/09/07 04:54:07;;;;;;;74.87;10.97;;;7.20;99.90;6.70;100969;;;;571766;247;24138;-76
2022/09/07 04:56:35;;;;;;;42.90;6.37;;;7.30;99.90;6.80;100972;;;;580768;244;24109;-76
2022/09/07 04:59:03;;;;;;;47.57;7.03;;;7.50;99.90;7.00;100966;;;;571680;247;24094;-77
2022/09/07 05:01:28;;;;;;;49.67;6.70;;;7.60;99.90;7.10;100959;;;;572460;247;24123;-76
2022/09/07 05:03:56;;;;;;;34.97;6.33;;;7.80;99.90;7.30;100966;;;;572464;247;24078;-76
2022/09/07 05:06:24;;;;;;;20.87;5.27;;;8.00;99.90;7.60;100960;;;;572500;247;24097;-76
2022/09/07 05:08:52;;;;;;;30.67;6.47;;;8.30;99.90;9.00;100962;;;;572104;247;24115;-76
2022/09/07 05:11:23;;;;;;;29.67;5.60;;;9.40;99.90;11.20;100967;;;;571790;247;24091;-76
2022/09/07 05:13:48;;;;;;;20.93;5.20;;;11.50;99.90;13.50;100980;;;;570015;247;24091;-77
2022/09/07 05:16:16;;;;;;;15.73;4.50;;;13.80;99.90;15.50;100969;;;;580841;247;24071;-76
2022/09/07 05:18:44;;;;;;;26.07;4.57;;;15.90;99.90;17.10;100966;;;;569502;247;24094;-76
2022/09/07 05:21:15;;;;;;;39.03;5.57;;;17.50;99.90;18.40;100957;;;;561855;251;24220;-77
2022/09/07 05:23:43;;;;;;;15.43;6.77;;;19.00;99.90;19.60;100973;;;;573476;250;24100;-76
2022/09/07 05:26:11;;;;;;;12.63;5.43;;;20.20;99.90;20.70;100965;;;;565424;249;24240;-77
2022/09/07 05:28:39;;;;;;;17.77;5.50;;;21.30;99.90;21.40;100970;;;;567247;246;24114;-79
2022/09/07 05:31:10;;;;;;;6.60;3.00;;;22.10;97.90;22.10;100960;;;;568971;247;25215;-79
2022/09/07 05:33:38;;;;;;;5.17;3.07;;;22.80;93.70;22.70;100967;;;;561673;251;24204;-77
2022/09/07 05:36:10;;;;;;;17.80;4.43;;;23.40;86.90;23.00;100959;;;;572435;250;24109;-78
2022/09/07 05:38:37;;;;;;;13.43;3.73;;;23.80;81.30;23.30;100958;;;;582739;245;24102;-77
2022/09/07 05:41:17;;;;;;;5.73;2.30;;;24.00;78.10;23.60;100949;;;;583217;246;24235;-79
2022/09/07 05:43:46;;;;;;;4.20;2.53;;;24.30;71.60;24.00;100958;;;;584162;240;24096;-78
2022/09/07 05:46:17;;;;;;;7.50;3.73;;;24.70;68.50;23.90;100953;;;;563654;251;24072;-77
2022/09/07 05:48:41;;;;;;;11.33;3.23;;;24.70;67.50;24.20;100955;;;;563310;250;24087;-78
2022/09/07 05:51:11;;;;;;;8.90;3.00;;;24.90;67.60;24.80;100945;;;;561622;250;24118;-77
2022/09/07 05:53:39;;;;;;;12.43;3.43;;;25.30;65.00;25.60;100950;;;;561196;251;24116;-78
2022/09/07 05:56:09;;;;;;;7.53;3.33;;;26.10;63.40;26.60;100956;;;;573400;246;24090;-78
2022/09/07 05:58:35;;;;;;;9.97;3.30;;;28.20;60.00;27.80;100965;;;;581560;245;23103;-77
2022/09/07 06:01:09;;;;;;;12.57;3.57;;;29.20;57.40;29.00;100967;;;;581278;246;23109;-77
2022/09/07 06:03:39;;;;;;;6.63;2.70;;;30.30;54.10;30.00;100966;;;;572842;247;24108;-78
2022/09/07 06:06:13;;;;;;;13.67;3.13;;;30.20;54.10;30.40;100972;;;;570587;247;23117;-79
2022/09/07 06:08:43;;;;;;;3.37;2.80;;;31.00;52.00;30.70;100972;;;;582544;247;23089;-77
2022/09/07 06:11:11;;;;;;;6.57;2.67;;;31.30;50.80;31.00;100982;;;;570522;247;23099;-77
2022/09/07 06:13:42;;;;;;;6.80;2.95;;;31.50;49.80;31.20;100971;;;;572429;247;23101;-77
2022/09/07 06:16:09;;;;;;;6.07;2.92;;;32.30;48.20;31.80;100983;;;;572171;247;23106;-77
2022/09/07 06:18:39;;;;;;;5.47;3.03;;;32.30;48.20;32.60;100985;;;;580992;247;23094;-77
2022/09/07 06:21:11;;;;;;;4.40;2.33;;;33.00;47.90;33.30;100991;;;;570420;247;23110;-77
2022/09/07 06:23:41;;;;;;;6.95;2.83;;;33.70;46.00;34.10;100988;;;;570138;247;23093;-82
2022/09/07 06:26:10;;;;;;;7.28;2.70;;;34.50;45.00;34.80;101000;;;;582174;246;24162;-78
2022/09/07 06:28:34;;;;;;;6.03;2.42;;;35.10;42.80;34.90;101001;;;;572493;247;23113;-78
2022/09/07 06:31:08;;;;;;;8.43;2.47;;;35.50;42.40;35.30;100998;;;;570210;242;23142;-79
2022/09/07 06:33:37;;;;;;;11.18;2.60;;;35.80;42.40;35.90;100995;;;;572818;247;24127;-79
2022/09/07 06:36:05;;;;;;;4.95;2.70;;;36.40;41.60;36.40;100993;;;;581638;247;23119;-79
2022/09/07 06:38:33;;;;;;;4.53;2.35;;;36.80;40.30;37.00;100993;;;;573697;246;23135;-78
2022/09/07 06:41:04;;;;;;;24.33;4.68;;;37.20;39.10;36.80;100994;;;;566618;246;35345;-78
2022/09/07 06:43:32;;;;;;;12.88;3.87;;;37.30;38.80;36.80;100989;;;;570717;246;23159;-77
2022/09/07 06:46:04;;;;;;;7.53;3.78;;;37.40;39.20;37.20;100991;;;;562967;251;24167;-78
2022/09/07 06:48:32;;;;;;;9.30;3.15;;;37.70;38.40;37.50;100995;;;;560836;250;24137;-78
2022/09/07 06:51:02;;;;;;;10.07;3.60;;;37.90;38.50;37.90;101000;;;;563247;249;23111;-77
2022/09/07 06:53:30;;;;;;;8.70;2.95;;;38.30;38.40;38.50;101003;;;;565985;250;24111;-77
2022/09/07 06:56:01;;;;;;;5.25;2.40;;;38.80;37.20;38.60;101004;;;;559613;250;23115;-78
2022/09/07 06:58:26;;;;;;;8.00;2.70;;;39.00;36.90;38.80;100998;;;;562896;249;24131;-77
2022/09/07 07:00:55;;;;;;;7.90;2.87;;;39.50;36.10;39.00;101005;;;;582761;246;23097;-77
2022/09/07 07:03:23;;;;;;;5.60;2.40;;;39.60;36.30;39.30;101008;;;;562007;251;23137;-77
2022/09/07 07:05:52;;;;;;;8.02;3.17;;;39.60;36.30;39.70;101011;;;;564713;251;23150;-77
2022/09/07 07:08:22;;;;;;;8.27;2.78;;;39.90;35.60;39.70;101023;;;;573492;250;24157;-78
2022/09/07 07:10:51;;;;;;;9.25;6.85;;;40.10;35.70;39.90;101015;;;;560519;250;23105;-77
2022/09/07 07:13:19;;;;;;;7.20;2.80;;;40.20;35.70;40.50;101018;;;;564943;250;23118;-78
2022/09/07 07:15:44;;;;;;;13.55;3.28;;;41.00;35.30;40.70;101015;;;;559694;250;23141;-75
2022/09/07 07:18:12;;;;;;;16.08;3.78;;;41.00;35.30;41.00;101016;;;;560219;251;23120;-78
2022/09/07 07:20:43;;;;;;;9.13;2.87;;;41.40;34.50;41.30;101022;;;;571393;247;35323;-77
2022/09/07 07:23:08;;;;;;;11.57;3.00;;;41.80;34.00;41.00;101016;;;;572284;247;23116;-79
2022/09/07 07:25:39;;;;;;;5.90;2.60;;;41.70;33.30;40.90;101025;;;;572316;247;23135;-77
2022/09/07 07:28:06;;;;;;;8.80;3.10;;;41.50;33.90;41.30;101023;;;;571805;247;23129;-77
2022/09/07 07:30:32;;;;;;;8.40;3.03;;;41.80;34.40;42.00;101027;;;;580940;247;23089;-77
2022/09/07 07:33:03;;;;;;;8.88;2.33;;;42.30;33.90;42.50;101024;;;;581057;243;23105;-78
2022/09/07 07:35:27;;;;;;;7.32;2.80;;;42.80;33.60;43.00;101032;;;;572046;247;24127;-77
2022/09/07 07:37:56;;;;;;;8.98;3.00;;;43.30;32.20;42.80;101032;;;;581055;247;23094;-76
2022/09/07 07:40:28;;;;;;;5.45;2.40;;;43.50;32.50;43.10;101029;;;;581478;247;23136;-77
2022/09/07 07:42:53;;;;;;;5.03;2.28;;;43.90;32.90;43.60;101024;;;;575780;247;23116;-76
2022/09/07 07:45:21;;;;;;;4.90;2.87;;;44.00;32.20;44.10;101025;;;;581014;246;23097;-80
2022/09/07 07:47:53;;;;;;;5.75;2.40;;;44.40;32.10;44.50;101032;;;;581196;247;24127;-78
2022/09/07 07:50:17;;;;;;;5.20;2.40;;;44.80;31.50;44.90;101036;;;;573058;246;23087;-77
2022/09/07 07:52:45;;;;;;;6.28;2.83;;;45.20;31.30;45.30;101040;;;;571293;251;23183;-77
2022/09/07 07:55:16;;;;;;;5.57;2.70;;;45.60;30.70;45.20;101027;;;;567352;250;23080;-77
2022/09/07 07:57:41;;;;;;;6.20;2.58;;;45.80;30.50;45.30;101033;;;;567202;251;23154;-77
2022/09/07 08:00:12;;;;;;;5.60;2.60;;;45.90;30.60;45.20;101033;;;;562355;251;23175;-77
2022/09/07 08:02:37;;;;;;;2.78;2.12;;;45.90;30.60;45.40;101040;;;;561427;251;23162;-77
2022/09/07 08:05:06;;;;;;;2.25;2.12;;;46.10;30.50;45.70;101040;;;;567360;250;23120;-75
2022/09/07 08:07:34;;;;;;;2.40;2.20;;;46.10;30.40;45.90;101037;;;;567429;250;23117;-77
2022/09/07 08:10:02;;;;;;;5.55;2.78;;;46.30;29.90;45.30;101035;;;;562321;251;23118;-77
2022/09/07 08:12:30;;;;;;;5.15;3.05;;;46.30;29.80;45.00;101032;;;;560056;251;23110;-76
2022/09/07 08:14:57;;;;;;;4.07;2.50;;;45.90;30.10;44.90;101030;;;;567151;250;23111;-76
2022/09/07 08:17:25;;;;;;;4.93;2.37;;;45.80;30.10;45.10;101026;;;;573588;249;23146;-76
2022/09/07 08:19:54;;;;;;;2.95;2.45;;;45.70;30.50;44.90;101027;;;;566672;250;23112;-76
2022/09/07 08:22:21;;;;;;;3.97;2.75;;;45.80;29.90;44.50;101032;;;;566964;251;23129;-76
2022/09/07 08:24:49;;;;;;;6.37;2.60;;;45.60;30.00;44.00;101041;;;;561903;251;23116;-76
2022/09/07 08:27:20;;;;;;;5.07;2.45;;;45.20;30.30;43.40;101038;;;;559360;251;23129;-77
2022/09/07 08:29:48;;;;;;;10.02;2.58;;;44.80;30.10;43.20;101027;;;;566513;250;23108;-76
2022/09/07 08:32:15;;;;;;;4.72;2.37;;;44.40;30.80;43.50;101027;;;;566390;250;23147;-76
2022/09/07 08:34:43;;;;;;;4.35;2.62;;;44.40;30.70;43.70;101026;;;;566878;250;24117;-77
2022/09/07 08:37:15;;;;;;;6.22;2.80;;;44.60;30.80;44.10;101027;;;;561784;250;35298;-77
2022/09/07 08:39:41;;;;;;;5.90;2.83;;;45.00;30.60;43.60;101034;;;;569869;251;23145;-78
2022/09/07 08:42:19;;;;;;;2.75;2.45;;;44.90;30.30;43.70;101034;;;;562321;251;23124;-77
2022/09/07 08:45:05;;;;;;;8.30;3.08;;;44.90;30.00;43.10;101031;;;;565449;250;23100;-77
2022/09/07 08:47:36;;;;;;;8.07;2.50;;;44.60;30.00;42.70;101028;;;;562726;250;23088;-77
2022/09/07 08:50:30;;;;;;;3.58;2.67;;;44.10;30.50;43.00;101039;;;;573801;250;23093;-80
2022/09/07 08:53:13;;;;;;;4.57;2.17;;;44.40;30.30;43.30;101037;;;;563609;250;23105;-77
2022/09/07 08:56:05;;;;;;;7.95;2.60;;;44.40;30.30;43.30;101034;;;;565394;250;23093;-76
2022/09/07 08:58:55;;;;;;;7.30;2.72;;;44.60;29.90;43.00;101029;;;;565414;250;23116;-76
2022/09/07 09:01:31;;;;;;;3.87;2.25;;;44.30;30.00;43.10;101030;;;;574939;248;23099;-77
2022/09/07 09:04:02;;;;;;;7.57;2.45;;;44.50;30.00;43.10;101035;;;;575489;248;24147;-76
2022/09/07 09:06:45;;;;;;;6.25;2.08;;;44.50;29.80;43.10;101031;;;;565821;249;23112;-76
2022/09/07 09:09:12;;;;;;;2.15;2.05;;;44.50;30.00;43.00;101028;;;;574755;248;23158;-76
2022/09/07 09:12:17;;;;;;;2.10;2.00;;;44.50;29.70;43.50;101027;;;;574358;250;23100;-77
2022/09/07 09:14:59;;;;;;;2.53;2.00;;;44.80;29.50;42.90;101033;;;;562972;250;23095;-76
2022/09/07 09:17:28;;;;;;;3.25;2.00;;;44.40;30.00;42.60;101024;;;;565959;250;23115;-77
2022/09/07 09:20:23;;;;;;;2.37;2.08;;;44.40;30.00;42.40;101019;;;;560593;250;23152;-78
2022/09/07 09:22:51;;;;;;;4.00;1.98;;;44.30;29.90;42.90;101013;;;;578089;246;24132;-80
2022/09/07 09:25:20;;;;;;;5.70;1.75;;;44.70;29.20;43.10;101012;;;;582636;246;23097;-80
2022/09/07 09:27:51;;;;;;;4.75;1.77;;;44.70;29.10;42.70;101015;;;;570645;246;23106;-78
2022/09/07 09:30:19;;;;;;;4.15;1.40;;;44.50;29.30;42.60;101021;;;;581415;246;23154;-79
2022/09/07 09:32:47;;;;;;;2.30;1.80;;;44.50;29.50;42.80;101015;;;;570361;246;23122;-78
2022/09/07 09:35:36;;;;;;;9.05;2.10;;;44.60;29.10;42.50;101012;;;;559833;251;23123;-79
2022/09/07 09:38:04;;;;;;;2.42;1.67;;;44.50;29.70;42.90;101004;;;;567081;250;24190;-81
2022/09/07 09:40:32;;;;;;;2.78;1.75;;;44.80;29.20;41.70;101002;;;;562148;250;23103;-78
2022/09/07 09:43:25;;;;;;;2.92;1.50;;;43.30;29.40;40.50;100997;;;;574086;250;23134;-81
2022/09/07 09:45:53;;;;;;;2.87;1.75;;;43.20;29.40;39.80;100991;;;;564844;250;23096;-82
2022/09/07 09:48:30;;;;;;;1.85;1.75;;;42.30;30.50;39.60;100996;;;;573374;250;23093;-76
2022/09/07 09:50:55;;;;;;;1.92;1.73;;;41.80;31.30;40.40;100994;;;;565377;251;23175;-77
2022/09/07 09:53:32;;;;;;;4.22;1.62;;;42.20;31.50;40.40;100988;;;;572300;247;24135;-79
2022/09/07 09:56:01;;;;;;;4.87;1.90;;;42.30;31.20;40.00;100978;;;;556701;254;23168;-77
2022/09/07 09:58:35;;;;;;;1.95;1.85;;;42.30;30.50;40.30;100977;;;;570949;247;23158;-77
2022/09/07 10:01:23;;;;;;;2.33;1.60;;;42.50;30.60;39.90;100969;;;;559919;251;23159;-80
2022/09/07 10:03:55;;;;;;;3.62;1.65;;;42.30;30.30;38.70;100971;;;;559857;251;23102;-81
2022/09/07 10:06:23;;;;;;;1.70;1.60;;;41.40;30.50;37.30;100953;;;;571349;250;24177;-79
2022/09/07 10:08:59;;;;;;;3.95;1.40;;;40.30;31.40;36.70;100959;;;;560327;251;23158;-83
2022/09/07 10:11:49;;;;;;;6.10;1.92;;;39.30;32.30;36.00;100962;;;;563702;251;23126;-81
2022/09/07 10:14:19;;;;;;;5.72;1.92;;;38.40;33.30;34.70;100956;;;;564691;250;23108;-79
2022/09/07 10:16:47;;;;;;;1.85;1.65;;;36.90;34.00;32.40;100959;;;;572867;251;23149;-78
2022/09/07 10:19:33;;;;;;;1.60;1.50;;;34.80;35.50;30.70;100957;;;;564899;251;24118;-78
2022/09/07 10:22:05;;;;;;;1.83;1.05;;;30.30;39.50;28.20;100945;;;;562818;251;23117;-78
2022/09/07 10:24:41;;;;;;;4.87;1.30;;;30.10;39.40;26.90;100938;;;;556445;251;23132;-77
2022/09/07 10:27:28;;;;;;;1.77;1.20;;;28.40;42.50;25.50;100947;;;;562905;251;23112;-81
2022/09/07 10:29:55;;;;;;;3.43;1.87;;;27.00;44.30;24.20;100944;;;;571690;251;23121;-77
2022/09/07 10:32:45;;;;;;;2.50;1.43;;;24.40;48.90;23.30;100943;;;;571289;247;24146;-76
2022/09/07 10:35:31;;;;;;;6.87;1.57;;;24.30;48.80;22.50;100943;;;;571771;251;23113;-76
2022/09/07 10:38:21;;;;;;;3.23;1.30;;;23.50;51.00;21.80;100938;;;;571587;251;24092;-78
2022/09/07 10:41:04;;;;;;;1.30;1.20;;;22.00;54.00;21.30;100932;;;;571710;251;24128;-78
2022/09/07 10:43:47;;;;;;;1.33;1.23;;;21.90;54.00;20.90;100936;;;;560175;251;24084;-81
2022/09/07 10:46:56;;;;;;;1.00;1.00;;;21.60;55.50;20.50;100935;;;;560428;251;24143;-77
2022/09/07 10:49:45;;;;;;;4.00;1.20;;;21.00;56.40;20.10;100935;;;;557733;251;24101;-76
2022/09/07 10:52:35;;;;;;;2.33;1.17;;;20.30;57.80;19.90;100921;;;;580159;247;24140;-75
2022/09/07 10:55:25;;;;;;;1.50;1.27;;;20.30;57.80;19.80;100929;;;;569299;251;24132;-75
2022/09/07 10:58:22;;;;;;;2.80;1.20;;;20.20;58.60;19.70;100927;;;;556830;251;39536;-76
2022/09/07 11:01:11;;;;;;;4.50;1.23;;;20.10;58.80;19.50;100922;;;;557157;251;35476;-75
2022/09/07 11:03:51;;;;;;;3.03;1.57;;;20.00;59.10;19.30;100915;;;;572026;247;24120;-76
2022/09/07 11:06:22;;;;;;;0.80;0.80;;;19.80;58.90;19.30;100916;;;;562572;251;24147;-76
2022/09/07 11:09:05;;;;;;;2.25;1.10;;;19.80;58.90;19.10;100918;;;;568223;250;35164;-75
2022/09/07 11:11:41;;;;;;;2.00;1.17;;;19.60;58.80;18.90;100908;;;;564949;250;24137;-74
2022/09/07 11:14:09;;;;;;;2.97;1.33;;;19.50;58.90;18.90;100914;;;;560900;251;24120;-82
2022/09/07 11:16:40;;;;;;;7.40;1.20;;;19.30;59.20;18.70;100911;;;;570790;251;24119;-79
2022/09/07 11:19:11;;;;;;;1.13;0.93;;;19.30;59.40;18.60;100909;;;;562410;251;24124;-81
2022/09/07 11:21:45;;;;;;;1.73;1.07;;;19.10;60.30;18.40;100902;;;;571083;251;24161;-80
2022/09/07 11:24:24;;;;;;;3.03;1.30;;;19.00;60.10;18.40;100901;;;;574203;248;24136;-86
2022/09/07 11:26:54;;;;;;;1.10;0.80;;;18.90;60.80;18.40;100899;;;;571612;249;24097;-83
2022/09/07 11:29:40;;;;;;;1.10;1.00;;;18.90;60.40;18.30;100888;;;;561112;250;24089;-77
2022/09/07 11:32:20;;;;;;;9.33;1.20;;;18.80;60.80;18.30;100893;;;;565871;250;24232;-76
2022/09/07 11:34:56;;;;;;;3.87;0.90;;;18.80;60.10;18.30;100891;;;;575566;248;24456;-76
2022/09/07 11:37:45;;;;;;;0.97;0.90;;;18.70;60.30;18.30;100887;;;;560119;252;24126;-83
2022/09/07 11:40:20;;;;;;;0.90;0.70;;;18.80;60.30;18.30;100893;;;;571226;246;24088;-78